Time;durP1;ratioP1;P1;durP2;ratioP2;P2;SDS_P1;SDS_P2;PMS_P1;PMS_P2;Temp;Humidity;BMP_temperature;BMP_pressure;BME280_temperature;BME280_humidity;BME280_pressure;Samples;Min_cycle;Max_cycle;Signal;HPM_P1;HPM_P2
2022/11/12 00:01:22;;;;;;;4.25;3.85;;;;;;;;;;4943998;29;20095;-79
2022/11/12 00:04:08;;;;;;;4.93;4.22;;;;;;;;;;4927329;29;20048;-77
2022/11/12 00:06:52;;;;;;;3.80;3.40;;;;;;;;;;4942980;29;20051;-79
2022/11/12 00:09:37;;;;;;;5.15;4.13;;;;;;;;;;4943831;29;20050;-80
2022/11/12 00:12:22;;;;;;;4.50;4.20;;;;;;;;;;4943585;29;20035;-79
2022/11/12 00:15:06;;;;;;;4.90;3.53;;;;;;;;;;4947671;29;20032;-79
2022/11/12 00:17:51;;;;;;;5.47;4.20;;;;;;;;;;4952174;29;20044;-79
2022/11/12 00:20:36;;;;;;;4.88;4.47;;;;;;;;;;4953933;29;20092;-79
2022/11/12 00:23:20;;;;;;;4.75;4.18;;;;;;;;;;4955522;29;20047;-80
2022/11/12 00:26:05;;;;;;;4.20;3.72;;;;;;;;;;4955062;29;20087;-81
2022/11/12 00:28:50;;;;;;;5.68;4.60;;;;;;;;;;4955232;29;20039;-78
2022/11/12 00:31:34;;;;;;;7.05;4.13;;;;;;;;;;4955326;29;20035;-78
2022/11/12 00:34:19;;;;;;;4.30;4.00;;;;;;;;;;4955273;29;20027;-78
2022/11/12 00:37:04;;;;;;;6.28;5.53;;;;;;;;;;4940290;29;20032;-77
2022/11/12 00:39:49;;;;;;;4.53;4.15;;;;;;;;;;4955598;29;20040;-77
2022/11/12 00:42:34;;;;;;;6.85;5.22;;;;;;;;;;4954789;29;20040;-79
2022/11/12 00:45:19;;;;;;;4.03;3.72;;;;;;;;;;4954311;29;20043;-79
2022/11/12 00:48:03;;;;;;;5.03;4.07;;;;;;;;;;4953310;29;20035;-79
2022/11/12 00:50:48;;;;;;;3.83;3.53;;;;;;;;;;4955257;29;20035;-78
2022/11/12 00:53:32;;;;;;;3.65;3.30;;;;;;;;;;4954281;29;20048;-78
2022/11/12 00:56:17;;;;;;;3.92;3.63;;;;;;;;;;4953836;29;20022;-78
2022/11/12 00:59:01;;;;;;;3.70;2.92;;;;;;;;;;4949644;29;20069;-80
2022/11/12 01:01:46;;;;;;;4.40;3.88;;;;;;;;;;4935193;29;20032;-80
2022/11/12 01:04:31;;;;;;;6.47;3.92;;;;;;;;;;4953315;29;20056;-80
2022/11/12 01:07:16;;;;;;;6.68;3.40;;;;;;;;;;4951381;29;20043;-79
2022/11/12 01:10:00;;;;;;;3.97;3.67;;;;;;;;;;4953898;29;20043;-79
2022/11/12 01:12:45;;;;;;;4.35;3.97;;;;;;;;;;4954532;29;20039;-79
2022/11/12 01:15:30;;;;;;;3.33;3.13;;;;;;;;;;4954069;29;20043;-78
2022/11/12 01:18:14;;;;;;;3.55;3.33;;;;;;;;;;4954122;29;20047;-79
2022/11/12 01:21:00;;;;;;;5.00;4.60;;;;;;;;;;4952055;29;20051;-79
2022/11/12 01:23:45;;;;;;;4.25;3.95;;;;;;;;;;4952140;29;20049;-79
2022/11/12 01:26:30;;;;;;;3.70;3.50;;;;;;;;;;4953499;29;20119;-78
2022/11/12 01:29:14;;;;;;;3.92;3.63;;;;;;;;;;4953295;29;20040;-80
2022/11/12 01:31:58;;;;;;;5.47;5.03;;;;;;;;;;4924356;29;20027;-79
2022/11/12 01:34:43;;;;;;;4.00;3.72;;;;;;;;;;4938234;29;20036;-80
2022/11/12 01:37:27;;;;;;;3.17;2.97;;;;;;;;;;4957591;29;20034;-80
2022/11/12 01:40:12;;;;;;;5.28;4.07;;;;;;;;;;4941192;29;20036;-78
2022/11/12 01:42:56;;;;;;;4.72;4.43;;;;;;;;;;4957409;29;20027;-79
2022/11/12 01:45:42;;;;;;;4.30;4.00;;;;;;;;;;4944136;29;20075;-79
2022/11/12 01:48:37;;;;;;;4.18;3.88;;;;;;;;;;4943516;29;20042;-79
2022/11/12 01:51:22;;;;;;;3.25;2.97;;;;;;;;;;4957951;29;20103;-79
2022/11/12 01:54:07;;;;;;;3.35;3.15;;;;;;;;;;4940134;29;20055;-79
2022/11/12 01:56:52;;;;;;;3.95;3.63;;;;;;;;;;4957317;29;20031;-79
2022/11/12 01:59:37;;;;;;;3.50;3.30;;;;;;;;;;4944071;29;20054;-79
2022/11/12 02:02:22;;;;;;;3.90;3.65;;;;;;;;;;4955805;29;20104;-80
2022/11/12 02:05:07;;;;;;;4.60;4.15;;;;;;;;;;4958043;29;20039;-80
2022/11/12 02:07:51;;;;;;;5.15;3.60;;;;;;;;;;4940841;29;20031;-80
2022/11/12 02:10:37;;;;;;;3.63;3.42;;;;;;;;;;4957807;29;20032;-79
2022/11/12 02:16:32;;;;;;;5.78;3.90;;;;;;;;;;4957016;29;20032;-78
2022/11/12 02:19:16;;;;;;;3.58;3.35;;;;;;;;;;4941498;29;20102;-78
2022/11/12 02:22:02;;;;;;;3.78;3.45;;;;;;;;;;4937462;29;20062;-78
2022/11/12 02:24:46;;;;;;;4.20;3.72;;;;;;;;;;4940626;29;20035;-79
2022/11/12 02:27:31;;;;;;;4.97;4.47;;;;;;;;;;4953306;29;20120;-78
2022/11/12 02:30:15;;;;;;;5.18;4.78;;;;;;;;;;4952032;29;20071;-79
2022/11/12 02:33:00;;;;;;;9.63;5.40;;;;;;;;;;4934166;29;20036;-79
2022/11/12 02:35:45;;;;;;;5.90;4.88;;;;;;;;;;4936248;29;20108;-79
2022/11/12 02:38:29;;;;;;;4.97;4.60;;;;;;;;;;4937388;29;20083;-78
2022/11/12 02:41:14;;;;;;;3.72;3.42;;;;;;;;;;4936997;29;20029;-81
2022/11/12 02:43:59;;;;;;;4.13;3.85;;;;;;;;;;4935884;29;20043;-80
2022/11/12 02:46:43;;;;;;;5.38;4.88;;;;;;;;;;4930777;29;20047;-80
2022/11/12 02:49:28;;;;;;;6.57;5.97;;;;;;;;;;4933828;29;20046;-78
2022/11/12 02:52:12;;;;;;;6.70;6.15;;;;;;;;;;4936910;29;20043;-80
2022/11/12 02:54:57;;;;;;;7.28;4.82;;;;;;;;;;4937505;29;20043;-80
2022/11/12 02:57:41;;;;;;;9.57;5.40;;;;;;;;;;4938330;29;20119;-81
2022/11/12 03:00:25;;;;;;;4.03;3.67;;;;;;;;;;4937185;29;20028;-79
2022/11/12 03:03:10;;;;;;;5.28;4.72;;;;;;;;;;4921594;29;20084;-79
2022/11/12 03:05:55;;;;;;;7.93;6.20;;;;;;;;;;4954303;29;20040;-79
2022/11/12 03:08:40;;;;;;;5.47;5.00;;;;;;;;;;4957150;29;20032;-81
2022/11/12 03:11:26;;;;;;;6.82;4.05;;;;;;;;;;4955575;29;20067;-79
2022/11/12 03:14:10;;;;;;;6.00;5.38;;;;;;;;;;4954811;29;20050;-77
2022/11/12 03:16:54;;;;;;;3.75;3.55;;;;;;;;;;4956077;29;20036;-78
2022/11/12 03:19:39;;;;;;;4.32;3.97;;;;;;;;;;4955613;29;20038;-78
2022/11/12 03:22:23;;;;;;;4.65;4.35;;;;;;;;;;4956139;29;20036;-79
2022/11/12 03:25:08;;;;;;;3.50;3.30;;;;;;;;;;4956921;29;20016;-79
2022/11/12 03:28:00;;;;;;;4.70;4.32;;;;;;;;;;4954753;29;20035;-79
2022/11/12 03:30:45;;;;;;;4.70;4.15;;;;;;;;;;4939487;29;20083;-79
2022/11/12 03:33:29;;;;;;;6.25;4.55;;;;;;;;;;4941930;29;20059;-78
2022/11/12 03:36:13;;;;;;;4.78;4.35;;;;;;;;;;4935579;29;20059;-79
2022/11/12 03:38:58;;;;;;;5.40;4.90;;;;;;;;;;4935633;29;20091;-79
2022/11/12 03:41:43;;;;;;;5.70;5.30;;;;;;;;;;4936053;29;20036;-80
2022/11/12 03:44:27;;;;;;;3.80;3.60;;;;;;;;;;4936891;29;20043;-81
2022/11/12 03:47:12;;;;;;;4.85;4.45;;;;;;;;;;4935736;29;20036;-80
2022/11/12 03:49:57;;;;;;;4.88;4.47;;;;;;;;;;4938031;29;20066;-81
2022/11/12 03:52:45;;;;;;;3.95;3.65;;;;;;;;;;4938244;29;20024;-82
2022/11/12 03:55:29;;;;;;;3.90;3.60;;;;;;;;;;4938281;29;20080;-79
2022/11/12 03:58:14;;;;;;;3.33;3.10;;;;;;;;;;4938734;29;20108;-79
2022/11/12 04:00:58;;;;;;;3.53;3.22;;;;;;;;;;4952044;29;20043;-79
2022/11/12 04:03:43;;;;;;;5.07;3.42;;;;;;;;;;4939301;29;20051;-81
2022/11/12 04:09:31;;;;;;;4.97;4.13;;;;;;;;;;4938007;29;20031;-79
2022/11/12 04:15:19;;;;;;;4.05;3.75;;;;;;;;;;4938115;29;20043;-80
2022/11/12 04:26:21;;;;;;;3.00;2.80;;;;;;;;;;4938247;29;20157;-80
2022/11/12 04:27:16;;;;;;;3.80;3.50;;;;;;;;;;4928585;29;20036;-79
2022/11/12 04:30:17;;;;;;;3.10;2.90;;;;;;;;;;4926757;29;20036;-81
2022/11/12 04:33:02;;;;;;;4.13;3.72;;;;;;;;;;4938990;29;20220;-81
2022/11/12 04:35:46;;;;;;;2.85;2.65;;;;;;;;;;4949553;29;20036;-80
2022/11/12 04:38:31;;;;;;;3.25;3.05;;;;;;;;;;4953051;29;20076;-78
2022/11/12 04:47:23;;;;;;;3.88;3.53;;;;;;;;;;4935245;29;20095;-79
2022/11/12 04:50:10;;;;;;;3.20;2.97;;;;;;;;;;4952478;29;20031;-80
2022/11/12 04:52:54;;;;;;;3.65;3.35;;;;;;;;;;4955050;29;20043;-79
2022/11/12 04:55:39;;;;;;;3.17;2.97;;;;;;;;;;4956239;29;20028;-80
2022/11/12 04:58:24;;;;;;;3.13;2.92;;;;;;;;;;4951765;29;20047;-79
2022/11/12 05:01:09;;;;;;;3.17;2.97;;;;;;;;;;4951394;29;20044;-79
2022/11/12 05:03:53;;;;;;;3.35;2.88;;;;;;;;;;4949718;29;20107;-80
2022/11/12 05:06:50;;;;;;;3.15;2.95;;;;;;;;;;4951072;29;20043;-79
2022/11/12 05:09:35;;;;;;;4.53;2.65;;;;;;;;;;4958323;29;20099;-80
2022/11/12 05:12:20;;;;;;;3.03;2.83;;;;;;;;;;4955771;29;20031;-80
2022/11/12 05:15:04;;;;;;;3.22;3.03;;;;;;;;;;4956155;29;20027;-80
2022/11/12 05:17:49;;;;;;;3.50;3.30;;;;;;;;;;4952693;29;20055;-77
2022/11/12 05:20:33;;;;;;;2.50;2.30;;;;;;;;;;4953841;29;20043;-80
2022/11/12 05:23:18;;;;;;;2.80;2.70;;;;;;;;;;4943720;29;20027;-80
2022/11/12 05:26:02;;;;;;;2.33;1.83;;;;;;;;;;4951734;29;20024;-82
2022/11/12 05:28:47;;;;;;;3.00;2.80;;;;;;;;;;4949916;28;20032;-83
2022/11/12 05:31:32;;;;;;;2.25;2.15;;;;;;;;;;4956515;29;20043;-81
2022/11/12 05:34:16;;;;;;;2.22;2.13;;;;;;;;;;4945373;29;20020;-81
2022/11/12 05:37:01;;;;;;;2.92;2.72;;;;;;;;;;4958114;29;20035;-81
2022/11/12 05:39:46;;;;;;;3.03;2.83;;;;;;;;;;4957790;29;20035;-79
2022/11/12 05:42:31;;;;;;;2.88;2.67;;;;;;;;;;4956898;29;20012;-83
2022/11/12 05:45:15;;;;;;;2.45;2.35;;;;;;;;;;4956088;29;20032;-77
2022/11/12 05:48:00;;;;;;;2.60;2.40;;;;;;;;;;4940673;29;20101;-79
2022/11/12 05:50:44;;;;;;;2.17;2.08;;;;;;;;;;4952063;29;20028;-80
2022/11/12 05:53:28;;;;;;;2.35;2.13;;;;;;;;;;4933670;29;20512;-77
2022/11/12 05:56:13;;;;;;;2.25;2.15;;;;;;;;;;4936213;29;20047;-81
2022/11/12 05:58:58;;;;;;;2.60;2.45;;;;;;;;;;4948214;29;20043;-81
2022/11/12 06:01:43;;;;;;;2.67;2.28;;;;;;;;;;4951650;29;20091;-77
2022/11/12 06:04:27;;;;;;;2.90;2.60;;;;;;;;;;4951342;29;20614;-81
2022/11/12 06:07:11;;;;;;;2.33;2.22;;;;;;;;;;4934955;29;20058;-74
2022/11/12 06:09:56;;;;;;;2.50;2.40;;;;;;;;;;4936994;29;20032;-74
2022/11/12 06:12:40;;;;;;;1.92;1.83;;;;;;;;;;4929473;29;20023;-74
2022/11/12 06:15:28;;;;;;;2.78;2.53;;;;;;;;;;4925736;29;20063;-76
2022/11/12 06:18:12;;;;;;;2.17;2.08;;;;;;;;;;4928548;29;20043;-76
2022/11/12 06:21:20;;;;;;;2.55;2.35;;;;;;;;;;4930266;29;20046;-74
2022/11/12 06:24:05;;;;;;;2.10;2.00;;;;;;;;;;4943762;29;20032;-74
2022/11/12 06:26:50;;;;;;;2.35;2.25;;;;;;;;;;4926241;29;20063;-75
2022/11/12 06:29:34;;;;;;;2.35;2.20;;;;;;;;;;4941588;29;20032;-75
2022/11/12 06:32:18;;;;;;;2.60;2.40;;;;;;;;;;4940721;29;20043;-75
2022/11/12 06:35:03;;;;;;;2.03;1.92;;;;;;;;;;4923709;29;20051;-75
2022/11/12 06:37:48;;;;;;;3.85;2.30;;;;;;;;;;4925620;29;20039;-73
2022/11/12 06:40:32;;;;;;;2.65;2.47;;;;;;;;;;4944147;29;20887;-74
2022/11/12 06:43:17;;;;;;;2.80;1.98;;;;;;;;;;4912214;29;20659;-75
2022/11/12 06:46:02;;;;;;;2.28;2.17;;;;;;;;;;4939892;29;20047;-74
2022/11/12 06:48:46;;;;;;;2.08;1.98;;;;;;;;;;4936271;29;20151;-73
2022/11/12 06:51:31;;;;;;;1.90;1.80;;;;;;;;;;4933806;29;20075;-73
2022/11/12 06:54:16;;;;;;;2.00;1.90;;;;;;;;;;4932890;29;20058;-74
2022/11/12 06:57:01;;;;;;;2.45;2.33;;;;;;;;;;4905507;29;20032;-73
2022/11/12 06:59:46;;;;;;;2.08;1.98;;;;;;;;;;4932379;29;20110;-74
2022/11/12 07:02:31;;;;;;;1.65;1.65;;;;;;;;;;4932152;29;20047;-73
2022/11/12 07:05:15;;;;;;;1.77;1.65;;;;;;;;;;4933531;29;20065;-74
2022/11/12 07:07:59;;;;;;;1.92;1.83;;;;;;;;;;4937250;29;20041;-73
2022/11/12 07:10:44;;;;;;;2.25;2.15;;;;;;;;;;4937902;29;20539;-74
2022/11/12 07:13:30;;;;;;;1.95;1.85;;;;;;;;;;4935622;29;20123;-72
2022/11/12 07:16:17;;;;;;;2.15;1.83;;;;;;;;;;4936400;29;20098;-73
2022/11/12 07:19:01;;;;;;;1.88;1.77;;;;;;;;;;4936219;29;20082;-72
2022/11/12 07:21:47;;;;;;;1.45;1.45;;;;;;;;;;4936281;29;20091;-74
2022/11/12 07:24:31;;;;;;;1.95;1.85;;;;;;;;;;4933652;29;20122;-73
2022/11/12 07:27:16;;;;;;;1.92;1.83;;;;;;;;;;4932834;29;20086;-73
2022/11/12 07:30:01;;;;;;;2.83;2.20;;;;;;;;;;4932676;29;20044;-73
2022/11/12 07:32:45;;;;;;;1.70;1.60;;;;;;;;;;4935540;29;20149;-73
2022/11/12 07:35:30;;;;;;;2.17;2.08;;;;;;;;;;4935391;29;20062;-73
2022/11/12 07:38:14;;;;;;;1.95;1.75;;;;;;;;;;4935836;29;20066;-74
2022/11/12 07:40:59;;;;;;;1.70;1.60;;;;;;;;;;4935420;29;20075;-75
2022/11/12 07:43:44;;;;;;;1.58;1.58;;;;;;;;;;4938080;29;20047;-74
2022/11/12 07:46:29;;;;;;;1.90;1.80;;;;;;;;;;4937425;29;20044;-75
2022/11/12 07:49:13;;;;;;;1.90;1.80;;;;;;;;;;4920380;29;20044;-73
2022/11/12 07:51:58;;;;;;;2.20;2.10;;;;;;;;;;4938047;29;20686;-73
2022/11/12 07:54:43;;;;;;;7.30;2.17;;;;;;;;;;4937534;29;20067;-74
2022/11/12 07:57:30;;;;;;;2.00;1.90;;;;;;;;;;4936825;29;20039;-73
2022/11/12 08:00:16;;;;;;;1.90;1.77;;;;;;;;;;4937613;29;20497;-74
2022/11/12 08:03:00;;;;;;;1.92;1.83;;;;;;;;;;4936618;29;20544;-74
2022/11/12 08:05:45;;;;;;;1.83;1.73;;;;;;;;;;4937362;29;20140;-74
2022/11/12 08:08:29;;;;;;;1.20;1.20;;;;;;;;;;4921290;29;20035;-75
2022/11/12 08:11:14;;;;;;;2.13;1.92;;;;;;;;;;4939928;29;20031;-74
2022/11/12 08:13:59;;;;;;;1.40;1.40;;;;;;;;;;4937147;29;20035;-75
2022/11/12 08:16:45;;;;;;;2.42;1.58;;;;;;;;;;4950687;29;20043;-74
2022/11/12 08:19:30;;;;;;;1.70;1.60;;;;;;;;;;4934038;29;20047;-73
2022/11/12 08:22:15;;;;;;;1.50;1.40;;;;;;;;;;4935493;29;20038;-74
2022/11/12 08:25:06;;;;;;;2.72;1.90;;;;;;;;;;4936787;29;20583;-73
2022/11/12 08:27:54;;;;;;;1.45;1.38;;;;;;;;;;4936878;29;20279;-73
2022/11/12 08:30:38;;;;;;;1.98;1.88;;;;;;;;;;4935995;29;20032;-74
2022/11/12 08:33:22;;;;;;;2.75;1.98;;;;;;;;;;4935538;29;20043;-73
2022/11/12 08:36:08;;;;;;;3.60;1.80;;;;;;;;;;4911246;29;20040;-74
2022/11/12 08:38:53;;;;;;;1.50;1.40;;;;;;;;;;4935314;29;20071;-73
2022/11/12 08:41:37;;;;;;;1.80;1.70;;;;;;;;;;4931909;29;20042;-73
2022/11/12 08:44:21;;;;;;;1.80;1.70;;;;;;;;;;4938316;29;20040;-74
2022/11/12 08:47:06;;;;;;;1.23;1.20;;;;;;;;;;4923176;29;20051;-72
2022/11/12 08:49:50;;;;;;;3.15;1.70;;;;;;;;;;4933572;29;20028;-73
2022/11/12 08:52:35;;;;;;;1.90;1.80;;;;;;;;;;4918926;29;20131;-74
2022/11/12 08:55:19;;;;;;;2.25;2.10;;;;;;;;;;4918847;29;20547;-73
2022/11/12 08:58:04;;;;;;;1.90;1.80;;;;;;;;;;4918874;29;20056;-73
2022/11/12 09:00:49;;;;;;;1.75;1.67;;;;;;;;;;4918051;29;20043;-73
2022/11/12 09:03:34;;;;;;;1.90;1.80;;;;;;;;;;4932791;29;20044;-73
2022/11/12 09:06:18;;;;;;;1.80;1.70;;;;;;;;;;4921894;29;20047;-73
2022/11/12 09:09:03;;;;;;;2.10;2.00;;;;;;;;;;4922285;29;20071;-73
2022/11/12 09:11:47;;;;;;;1.48;1.48;;;;;;;;;;4938908;29;20123;-74
2022/11/12 09:14:32;;;;;;;1.52;1.52;;;;;;;;;;4923915;29;20386;-73
2022/11/12 09:17:16;;;;;;;1.52;1.42;;;;;;;;;;4937450;29;20050;-74
2022/11/12 09:20:00;;;;;;;1.88;1.77;;;;;;;;;;4936702;29;20051;-74
2022/11/12 09:22:44;;;;;;;1.50;1.40;;;;;;;;;;4935018;29;20039;-74
2022/11/12 09:25:30;;;;;;;1.55;1.55;;;;;;;;;;4934508;29;20143;-73
2022/11/12 09:28:15;;;;;;;1.90;1.80;;;;;;;;;;4932811;29;20040;-73
2022/11/12 09:30:59;;;;;;;1.70;1.60;;;;;;;;;;4934874;29;20106;-73
2022/11/12 09:33:44;;;;;;;2.17;2.08;;;;;;;;;;4931602;29;20412;-74
2022/11/12 09:36:28;;;;;;;1.60;1.50;;;;;;;;;;4935113;29;20040;-74
2022/11/12 09:39:13;;;;;;;1.20;1.20;;;;;;;;;;4929463;29;20048;-74
2022/11/12 09:41:58;;;;;;;1.52;1.50;;;;;;;;;;4934197;29;20035;-73
2022/11/12 09:44:43;;;;;;;1.73;1.63;;;;;;;;;;4930206;29;20476;-74
2022/11/12 09:47:56;;;;;;;1.17;1.17;;;;;;;;;;4918045;29;20039;-74
2022/11/12 09:50:41;;;;;;;;;;;;;;;;;;4933863;29;20639;-74
2022/11/12 09:53:33;;;;;;;1.52;1.52;;;;;;;;;;4931684;29;19938;-73
2022/11/12 09:56:18;;;;;;;1.70;1.60;;;;;;;;;;4932468;29;20122;-74
2022/11/12 09:59:05;;;;;;;1.95;1.75;;;;;;;;;;4932900;29;20123;-73
2022/11/12 10:01:52;;;;;;;1.92;1.83;;;;;;;;;;4908562;29;20032;-73
2022/11/12 10:04:42;;;;;;;1.25;1.25;;;;;;;;;;4934581;29;20044;-72
2022/11/12 10:07:36;;;;;;;1.60;1.50;;;;;;;;;;4934478;29;20543;-73
2022/11/12 10:10:23;;;;;;;1.80;1.70;;;;;;;;;;4932454;29;20043;-73
2022/11/12 10:13:19;;;;;;;1.40;1.40;;;;;;;;;;4933789;29;20408;-72
2022/11/12 10:19:25;;;;;;;1.30;1.30;;;;;;;;;;4934486;29;20047;-72
2022/11/12 10:22:09;;;;;;;1.77;1.27;;;;;;;;;;4935970;29;20067;-72
2022/11/12 10:24:54;;;;;;;1.50;1.50;;;;;;;;;;4935071;29;20035;-72
2022/11/12 10:27:39;;;;;;;2.35;1.80;;;;;;;;;;4934021;29;20042;-73
2022/11/12 10:30:24;;;;;;;1.45;1.38;;;;;;;;;;4943570;29;20040;-82
2022/11/12 10:33:11;;;;;;;2.10;1.85;;;;;;;;;;4951882;29;20018;-83
2022/11/12 10:35:56;;;;;;;1.48;1.40;;;;;;;;;;4941178;29;20032;-80
2022/11/12 10:38:41;;;;;;;1.35;1.27;;;;;;;;;;5103850;23;20045;-87
2022/11/12 10:41:27;;;;;;;1.50;1.40;;;;;;;;;;5348313;23;20017;-83
2022/11/12 10:47:21;;;;;;;1.23;1.23;;;;;;;;;;5322225;23;20038;-86
2022/11/12 10:50:36;;;;;;;1.40;1.40;;;;;;;;;;5558867;23;20353;-80
2022/11/12 10:53:34;;;;;;;1.38;1.38;;;;;;;;;;5124101;23;20047;31
2022/11/12 10:56:44;;;;;;;1.23;1.23;;;;;;;;;;5081321;23;20070;-86
2022/11/12 11:02:25;;;;;;;2.92;2.03;;;;;;;;;;5111933;23;20522;-85
2022/11/12 11:05:29;;;;;;;1.80;1.70;;;;;;;;;;5023380;23;20126;-87
2022/11/12 11:08:14;;;;;;;1.45;1.45;;;;;;;;;;5318629;23;20026;-83
2022/11/12 11:11:09;;;;;;;4.10;1.90;;;;;;;;;;5172187;23;20055;-85
2022/11/12 11:13:54;;;;;;;2.00;1.90;;;;;;;;;;4950131;28;20023;-85
2022/11/12 11:19:26;;;;;;;1.50;1.50;;;;;;;;;;5120392;23;20043;-86
2022/11/12 11:22:10;;;;;;;1.90;1.80;;;;;;;;;;4983662;28;20043;-84
2022/11/12 11:25:07;;;;;;;2.35;1.63;;;;;;;;;;4977582;28;20051;-85
2022/11/12 11:28:04;;;;;;;1.58;1.50;;;;;;;;;;4974376;28;20027;-81
2022/11/12 11:30:53;;;;;;;1.10;1.10;;;;;;;;;;4970662;29;20046;-81
2022/11/12 11:33:53;;;;;;;1.38;1.38;;;;;;;;;;4974649;28;20083;-81
2022/11/12 11:36:44;;;;;;;1.63;1.52;;;;;;;;;;4968690;29;20055;-80
2022/11/12 11:39:35;;;;;;;2.60;2.40;;;;;;;;;;4959703;29;20039;-82
2022/11/12 11:42:20;;;;;;;;;;;;;;;;;;4969954;29;20027;-81
2022/11/12 11:45:10;;;;;;;1.92;1.77;;;;;;;;;;4973715;28;19954;-83
2022/11/12 11:48:03;;;;;;;2.00;1.90;;;;;;;;;;4971408;29;20114;-79
2022/11/12 11:51:00;;;;;;;2.63;2.42;;;;;;;;;;4956054;29;20388;-81
2022/11/12 11:53:50;;;;;;;2.85;2.63;;;;;;;;;;4968411;29;20371;-81
2022/11/12 11:56:39;;;;;;;1.98;1.88;;;;;;;;;;4968142;29;20039;-80
2022/11/12 11:59:26;;;;;;;3.10;2.63;;;;;;;;;;4944854;29;20456;-80
2022/11/12 12:02:14;;;;;;;2.30;2.20;;;;;;;;;;4948828;29;20046;-79
2022/11/12 12:05:17;;;;;;;3.15;2.88;;;;;;;;;;4955868;29;20038;-81
2022/11/12 12:08:22;;;;;;;3.35;3.05;;;;;;;;;;4953928;29;20063;-81
2022/11/12 12:11:07;;;;;;;3.83;3.42;;;;;;;;;;4936606;29;20047;-82
2022/11/12 12:14:01;;;;;;;4.80;3.80;;;;;;;;;;4963627;28;20051;-81
2022/11/12 12:17:04;;;;;;;3.67;3.20;;;;;;;;;;4961539;28;20023;-81
2022/11/12 12:20:04;;;;;;;3.55;3.15;;;;;;;;;;4958484;29;20059;-80
2022/11/12 12:22:53;;;;;;;5.82;3.72;;;;;;;;;;4952834;29;20393;-79
2022/11/12 12:25:38;;;;;;;3.88;3.38;;;;;;;;;;4931974;29;20038;-80
2022/11/12 12:28:26;;;;;;;3.58;3.08;;;;;;;;;;4938521;29;20034;-79
2022/11/12 12:31:12;;;;;;;2.75;2.55;;;;;;;;;;4954720;28;20066;-80
2022/11/12 12:34:04;;;;;;;4.07;2.30;;;;;;;;;;4952248;29;20110;-79
2022/11/12 12:36:49;;;;;;;1.80;1.70;;;;;;;;;;4931026;29;20039;-80
2022/11/12 12:39:34;;;;;;;2.00;1.90;;;;;;;;;;4931813;29;20084;-81
2022/11/12 12:42:25;;;;;;;2.20;2.10;;;;;;;;;;4955218;29;20035;-81
2022/11/12 12:45:21;;;;;;;1.80;1.70;;;;;;;;;;4955946;29;20047;-81
2022/11/12 12:48:07;;;;;;;2.15;1.67;;;;;;;;;;4956742;28;20063;-82
2022/11/12 12:50:52;;;;;;;1.85;1.85;;;;;;;;;;4953792;29;20031;-83
2022/11/12 12:53:37;;;;;;;1.60;1.50;;;;;;;;;;4951705;29;20051;-82
2022/11/12 12:56:22;;;;;;;1.88;1.77;;;;;;;;;;4959283;28;20045;-80
2022/11/12 12:59:07;;;;;;;1.92;1.83;;;;;;;;;;4963814;29;20047;-80
2022/11/12 13:01:58;;;;;;;1.58;1.50;;;;;;;;;;4948169;29;20622;-79
2022/11/12 13:04:52;;;;;;;1.52;1.50;;;;;;;;;;4957649;29;20492;-80
2022/11/12 13:07:39;;;;;;;2.65;1.63;;;;;;;;;;4951865;29;20039;-78
2022/11/12 13:10:33;;;;;;;1.60;1.50;;;;;;;;;;4948954;29;20031;-80
2022/11/12 13:13:18;;;;;;;1.60;1.60;;;;;;;;;;4943494;29;20051;-81
2022/11/12 13:16:03;;;;;;;1.40;1.40;;;;;;;;;;4944608;29;20046;-79
2022/11/12 13:18:57;;;;;;;1.55;1.50;;;;;;;;;;4917883;29;20471;-79
2022/11/12 13:21:42;;;;;;;3.10;1.48;;;;;;;;;;4948852;28;20034;-79
2022/11/12 13:24:46;;;;;;;1.73;1.63;;;;;;;;;;4954482;28;20043;-79
2022/11/12 13:27:39;;;;;;;1.40;1.40;;;;;;;;;;4965982;28;20058;-82
2022/11/12 13:30:24;;;;;;;1.60;1.50;;;;;;;;;;4952289;28;20043;-81
2022/11/12 13:33:19;;;;;;;1.73;1.63;;;;;;;;;;4922171;29;20041;-81
2022/11/12 13:36:23;;;;;;;3.08;1.38;;;;;;;;;;4953180;28;20042;-82
2022/11/12 13:39:12;;;;;;;1.25;1.15;;;;;;;;;;4954648;29;20050;-82
2022/11/12 13:45:01;;;;;;;1.80;1.67;;;;;;;;;;4953591;29;20082;-78
2022/11/12 13:47:45;;;;;;;1.40;1.40;;;;;;;;;;4951142;29;20035;-80
2022/11/12 13:50:30;;;;;;;1.40;1.40;;;;;;;;;;4951866;29;20439;-78
2022/11/12 13:53:17;;;;;;;1.33;1.33;;;;;;;;;;4938136;29;20500;-78
2022/11/12 13:56:01;;;;;;;1.45;1.35;;;;;;;;;;4950503;29;20035;-80
2022/11/12 13:58:45;;;;;;;1.40;1.40;;;;;;;;;;4953768;29;20070;-79
2022/11/12 14:01:30;;;;;;;1.17;1.17;;;;;;;;;;4933789;29;20054;-79
2022/11/12 14:04:22;;;;;;;2.70;1.23;;;;;;;;;;4937274;29;20130;-79
2022/11/12 14:07:09;;;;;;;3.15;1.30;;;;;;;;;;4951618;28;20027;-79
2022/11/12 14:09:57;;;;;;;1.83;1.73;;;;;;;;;;4951081;28;20042;-78
2022/11/12 14:12:41;;;;;;;1.30;1.30;;;;;;;;;;4933843;29;20054;-80
2022/11/12 14:15:44;;;;;;;1.40;1.40;;;;;;;;;;4952381;28;20039;-78
2022/11/12 14:18:48;;;;;;;1.45;1.35;;;;;;;;;;4941641;29;20058;-77
2022/11/12 14:21:33;;;;;;;1.45;1.38;;;;;;;;;;4952408;29;20047;-77
2022/11/12 14:24:17;;;;;;;1.85;1.75;;;;;;;;;;4950454;29;20067;-76
2022/11/12 14:27:01;;;;;;;1.42;1.38;;;;;;;;;;4947181;29;20037;-76
2022/11/12 14:29:46;;;;;;;1.48;1.38;;;;;;;;;;4926018;29;20035;-76
2022/11/12 14:32:35;;;;;;;2.72;1.38;;;;;;;;;;4915207;29;20036;-76
2022/11/12 14:35:40;;;;;;;1.35;1.35;;;;;;;;;;4950769;29;20369;-76
2022/11/12 14:38:31;;;;;;;1.48;1.30;;;;;;;;;;4950461;29;20074;-76
2022/11/12 14:41:15;;;;;;;;;;;;;;;;;;4915948;29;20094;-74
2022/11/12 14:44:00;;;;;;;1.40;1.40;;;;;;;;;;4932522;29;19914;-76
2022/11/12 14:46:45;;;;;;;1.40;1.40;;;;;;;;;;4949733;29;20138;-75
2022/11/12 14:49:33;;;;;;;1.45;1.35;;;;;;;;;;4948912;29;20582;-76
2022/11/12 14:52:18;;;;;;;1.13;1.13;;;;;;;;;;4949992;29;20101;-78
2022/11/12 14:55:05;;;;;;;1.23;1.23;;;;;;;;;;4919016;29;20117;-76
2022/11/12 14:57:49;;;;;;;1.00;1.00;;;;;;;;;;4935180;29;20118;-78
2022/11/12 15:00:35;;;;;;;1.23;1.23;;;;;;;;;;4948575;28;20385;-75
2022/11/12 15:03:20;;;;;;;1.67;1.58;;;;;;;;;;4950040;29;20027;-76
2022/11/12 15:06:05;;;;;;;1.52;1.40;;;;;;;;;;4934991;29;20551;-76
2022/11/12 15:08:54;;;;;;;1.75;1.65;;;;;;;;;;4948253;29;20603;-76
2022/11/12 15:11:43;;;;;;;1.40;1.30;;;;;;;;;;4947631;29;20130;-76
2022/11/12 15:14:27;;;;;;;1.00;1.00;;;;;;;;;;4948132;29;20039;-77
2022/11/12 15:17:27;;;;;;;1.20;1.10;;;;;;;;;;4949580;29;20102;-75
2022/11/12 15:20:15;;;;;;;0.70;0.70;;;;;;;;;;4944684;29;20059;-76
2022/11/12 15:22:59;;;;;;;0.70;0.70;;;;;;;;;;4946517;29;20123;-75
2022/11/12 15:25:44;;;;;;;1.02;1.02;;;;;;;;;;4947440;28;20035;-75
2022/11/12 15:28:28;;;;;;;1.00;1.00;;;;;;;;;;4932870;29;20082;-77
2022/11/12 15:31:17;;;;;;;1.20;1.20;;;;;;;;;;4949028;28;20038;-77
2022/11/12 15:34:23;;;;;;;1.13;1.10;;;;;;;;;;4949776;29;20071;-78
2022/11/12 15:37:08;;;;;;;1.08;1.08;;;;;;;;;;4950212;29;20038;-78
2022/11/12 15:39:56;;;;;;;1.02;1.02;;;;;;;;;;4950110;29;20126;-78
2022/11/12 15:42:40;;;;;;;1.75;1.00;;;;;;;;;;4923508;29;20050;-77
2022/11/12 15:45:25;;;;;;;1.00;1.00;;;;;;;;;;4951557;29;20126;-78
2022/11/12 15:48:10;;;;;;;1.23;1.20;;;;;;;;;;4933279;29;20038;-78
2022/11/12 15:50:54;;;;;;;1.85;0.90;;;;;;;;;;4950567;29;20058;-77
2022/11/12 15:53:39;;;;;;;1.40;1.30;;;;;;;;;;4932681;29;20038;-78
2022/11/12 15:56:23;;;;;;;0.90;0.90;;;;;;;;;;4947005;29;20051;-76
2022/11/12 15:59:09;;;;;;;0.95;0.88;;;;;;;;;;4950339;29;20043;-76
2022/11/12 16:01:53;;;;;;;1.05;1.05;;;;;;;;;;4950351;28;20039;-76
2022/11/12 16:04:38;;;;;;;1.02;0.98;;;;;;;;;;4950642;29;20050;-76
2022/11/12 16:07:22;;;;;;;1.02;1.02;;;;;;;;;;4950633;29;20042;-77
2022/11/12 16:10:16;;;;;;;0.95;0.90;;;;;;;;;;4950438;29;20039;-76
2022/11/12 16:13:01;;;;;;;1.00;1.00;;;;;;;;;;4950498;29;20548;-79
2022/11/12 16:15:45;;;;;;;1.25;1.25;;;;;;;;;;4950107;29;20035;-78
2022/11/12 16:18:30;;;;;;;1.40;1.40;;;;;;;;;;4935545;29;20051;-76
2022/11/12 16:21:14;;;;;;;1.10;1.10;;;;;;;;;;4950106;29;20058;-76
2022/11/12 16:23:59;;;;;;;1.25;1.25;;;;;;;;;;4920416;29;20039;-77
2022/11/12 16:26:43;;;;;;;1.10;1.10;;;;;;;;;;4950014;29;20151;-77
2022/11/12 16:29:27;;;;;;;1.20;1.20;;;;;;;;;;4950691;29;20416;-77
2022/11/12 16:32:12;;;;;;;0.90;0.90;;;;;;;;;;4950405;29;20338;-77
2022/11/12 16:34:57;;;;;;;0.85;0.85;;;;;;;;;;4936154;29;20031;-77
2022/11/12 16:37:42;;;;;;;0.90;0.90;;;;;;;;;;4950121;29;20530;-79
2022/11/12 16:40:27;;;;;;;0.82;0.82;;;;;;;;;;4935573;29;20042;-79
2022/11/12 16:43:11;;;;;;;1.00;1.00;;;;;;;;;;4949970;29;20079;-78
2022/11/12 16:45:56;;;;;;;0.98;0.98;;;;;;;;;;4949878;29;20078;-76
2022/11/12 16:48:40;;;;;;;1.10;1.10;;;;;;;;;;4949672;29;20043;-77
2022/11/12 16:51:25;;;;;;;1.75;1.65;;;;;;;;;;4949787;29;20031;-77
2022/11/12 16:54:09;;;;;;;0.90;0.90;;;;;;;;;;4950058;29;20050;-76
2022/11/12 16:56:54;;;;;;;1.00;1.00;;;;;;;;;;4949381;29;20250;-76
2022/11/12 16:59:38;;;;;;;1.23;1.20;;;;;;;;;;4935123;29;20051;-77
2022/11/12 17:02:23;;;;;;;0.90;0.90;;;;;;;;;;4935364;29;20038;-77
2022/11/12 17:05:14;;;;;;;0.90;0.90;;;;;;;;;;4953478;29;20504;-77
2022/11/12 17:07:59;;;;;;;1.02;1.02;;;;;;;;;;4939074;29;20039;-76
2022/11/12 17:10:44;;;;;;;1.00;0.95;;;;;;;;;;4938603;29;20039;-77
2022/11/12 17:13:28;;;;;;;1.10;1.10;;;;;;;;;;4953628;29;20042;-76
2022/11/12 17:16:13;;;;;;;1.00;1.00;;;;;;;;;;4954537;29;20101;-76